sensor_id;sensor_type;location;lat;lon;timestamp;temperature;humidity
451;DHT22;212;48.748;9.174;2022-08-02T00:01:48;18.70;1.00
451;DHT22;212;48.748;9.174;2022-08-02T00:04:15;18.70;1.00
451;DHT22;212;48.748;9.174;2022-08-02T00:06:42;18.60;1.00
451;DHT22;212;48.748;9.174;2022-08-02T00:09:09;18.60;1.00
451;DHT22;212;48.748;9.174;2022-08-02T00:11:36;18.60;1.00
451;DHT22;212;48.748;9.174;2022-08-02T00:14:03;18.60;1.00
451;DHT22;212;48.748;9.174;2022-08-02T00:16:30;18.70;1.00
451;DHT22;212;48.748;9.174;2022-08-02T00:18:58;18.70;1.00
451;DHT22;212;48.748;9.174;2022-08-02T00:21:25;18.70;1.00
451;DHT22;212;48.748;9.174;2022-08-02T00:23:52;18.80;1.00
451;DHT22;212;48.748;9.174;2022-08-02T00:26:18;18.70;1.00
451;DHT22;212;48.748;9.174;2022-08-02T00:28:45;18.60;1.00
451;DHT22;212;48.748;9.174;2022-08-02T00:31:12;18.60;1.00
451;DHT22;212;48.748;9.174;2022-08-02T00:33:39;18.60;1.00
451;DHT22;212;48.748;9.174;2022-08-02T00:36:07;18.60;1.00
451;DHT22;212;48.748;9.174;2022-08-02T00:38:34;18.60;1.00
451;DHT22;212;48.748;9.174;2022-08-02T00:41:00;18.60;1.00
451;DHT22;212;48.748;9.174;2022-08-02T00:43:27;18.60;1.00
451;DHT22;212;48.748;9.174;2022-08-02T00:45:54;18.50;1.00
451;DHT22;212;48.748;9.174;2022-08-02T00:48:20;18.50;1.00
451;DHT22;212;48.748;9.174;2022-08-02T00:50:47;18.50;1.00
451;DHT22;212;48.748;9.174;2022-08-02T00:53:15;18.50;1.00
451;DHT22;212;48.748;9.174;2022-08-02T00:55:42;18.50;1.00
451;DHT22;212;48.748;9.174;2022-08-02T00:58:08;18.40;1.00
451;DHT22;212;48.748;9.174;2022-08-02T01:00:35;18.30;1.00
451;DHT22;212;48.748;9.174;2022-08-02T01:03:02;18.30;1.00
451;DHT22;212;48.748;9.174;2022-08-02T01:05:28;18.40;1.00
451;DHT22;212;48.748;9.174;2022-08-02T01:07:55;18.50;1.00
451;DHT22;212;48.748;9.174;2022-08-02T01:10:23;18.50;1.00
451;DHT22;212;48.748;9.174;2022-08-02T01:12:50;18.50;1.00
451;DHT22;212;48.748;9.174;2022-08-02T01:15:17;18.50;1.00
451;DHT22;212;48.748;9.174;2022-08-02T01:17:48;18.50;1.00
451;DHT22;212;48.748;9.174;2022-08-02T01:20:32;18.50;1.00
451;DHT22;212;48.748;9.174;2022-08-02T01:23:08;18.40;1.00
451;DHT22;212;48.748;9.174;2022-08-02T01:25:59;18.40;1.00
451;DHT22;212;48.748;9.174;2022-08-02T01:28:34;18.40;1.00
451;DHT22;212;48.748;9.174;2022-08-02T01:31:07;18.50;1.00
451;DHT22;212;48.748;9.174;2022-08-02T01:33:42;18.50;1.00
451;DHT22;212;48.748;9.174;2022-08-02T01:36:12;18.50;1.00
451;DHT22;212;48.748;9.174;2022-08-02T01:38:44;18.60;1.00
451;DHT22;212;48.748;9.174;2022-08-02T01:41:17;18.60;1.00
451;DHT22;212;48.748;9.174;2022-08-02T01:43:46;18.60;1.00
451;DHT22;212;48.748;9.174;2022-08-02T01:46:14;18.60;1.00
451;DHT22;212;48.748;9.174;2022-08-02T01:48:43;18.70;1.00
451;DHT22;212;48.748;9.174;2022-08-02T01:51:13;18.70;1.00
451;DHT22;212;48.748;9.174;2022-08-02T01:53:41;18.70;1.00
451;DHT22;212;48.748;9.174;2022-08-02T01:56:10;18.70;1.00
451;DHT22;212;48.748;9.174;2022-08-02T01:58:38;18.80;1.00
451;DHT22;212;48.748;9.174;2022-08-02T02:01:08;18.80;1.00
451;DHT22;212;48.748;9.174;2022-08-02T02:03:38;18.70;1.00
451;DHT22;212;48.748;9.174;2022-08-02T02:06:06;18.70;1.00
451;DHT22;212;48.748;9.174;2022-08-02T02:08:37;18.70;1.00
451;DHT22;212;48.748;9.174;2022-08-02T02:11:05;18.70;1.00
451;DHT22;212;48.748;9.174;2022-08-02T02:13:33;18.70;1.00
451;DHT22;212;48.748;9.174;2022-08-02T02:16:04;18.70;1.00
451;DHT22;212;48.748;9.174;2022-08-02T02:18:36;18.70;1.00
451;DHT22;212;48.748;9.174;2022-08-02T02:21:05;18.70;1.00
451;DHT22;212;48.748;9.174;2022-08-02T02:23:32;18.70;1.00
451;DHT22;212;48.748;9.174;2022-08-02T02:25:59;18.70;1.00
451;DHT22;212;48.748;9.174;2022-08-02T02:28:28;18.80;1.00
451;DHT22;212;48.748;9.174;2022-08-02T02:30:59;18.70;1.00
451;DHT22;212;48.748;9.174;2022-08-02T02:33:30;18.70;1.00
451;DHT22;212;48.748;9.174;2022-08-02T02:35:59;18.80;1.00
451;DHT22;212;48.748;9.174;2022-08-02T02:38:30;18.80;1.00
451;DHT22;212;48.748;9.174;2022-08-02T02:40:59;18.80;1.00
451;DHT22;212;48.748;9.174;2022-08-02T02:43:28;18.80;1.00
451;DHT22;212;48.748;9.174;2022-08-02T02:45:56;18.70;1.00
451;DHT22;212;48.748;9.174;2022-08-02T02:48:24;18.70;1.00
451;DHT22;212;48.748;9.174;2022-08-02T02:50:52;18.70;1.00
451;DHT22;212;48.748;9.174;2022-08-02T02:53:21;18.70;1.00
451;DHT22;212;48.748;9.174;2022-08-02T02:55:49;18.80;1.00
451;DHT22;212;48.748;9.174;2022-08-02T02:58:16;18.70;1.00
451;DHT22;212;48.748;9.174;2022-08-02T03:00:44;18.80;1.00
451;DHT22;212;48.748;9.174;2022-08-02T03:03:28;18.70;1.00
451;DHT22;212;48.748;9.174;2022-08-02T03:05:56;18.80;1.00
451;DHT22;212;48.748;9.174;2022-08-02T03:08:24;18.60;1.00
451;DHT22;212;48.748;9.174;2022-08-02T03:10:51;18.60;1.00
451;DHT22;212;48.748;9.174;2022-08-02T03:13:19;18.50;1.00
451;DHT22;212;48.748;9.174;2022-08-02T03:15:46;18.50;1.00
451;DHT22;212;48.748;9.174;2022-08-02T03:18:29;18.40;1.00
451;DHT22;212;48.748;9.174;2022-08-02T03:20:58;18.40;1.00
451;DHT22;212;48.748;9.174;2022-08-02T03:23:27;18.30;1.00
451;DHT22;212;48.748;9.174;2022-08-02T03:25:54;18.30;1.00
451;DHT22;212;48.748;9.174;2022-08-02T03:28:21;18.40;1.00
451;DHT22;212;48.748;9.174;2022-08-02T03:30:48;18.50;1.00
451;DHT22;212;48.748;9.174;2022-08-02T03:33:15;18.40;1.00
451;DHT22;212;48.748;9.174;2022-08-02T03:35:42;18.40;1.00
451;DHT22;212;48.748;9.174;2022-08-02T03:38:11;18.30;1.00
451;DHT22;212;48.748;9.174;2022-08-02T03:40:41;18.30;1.00
451;DHT22;212;48.748;9.174;2022-08-02T03:43:09;18.40;1.00
451;DHT22;212;48.748;9.174;2022-08-02T03:45:38;18.40;1.00
451;DHT22;212;48.748;9.174;2022-08-02T03:48:06;18.30;1.00
451;DHT22;212;48.748;9.174;2022-08-02T03:50:33;18.10;1.00
451;DHT22;212;48.748;9.174;2022-08-02T03:53:02;18.10;1.00
451;DHT22;212;48.748;9.174;2022-08-02T03:55:28;18.00;1.00
451;DHT22;212;48.748;9.174;2022-08-02T03:57:57;18.20;1.00
451;DHT22;212;48.748;9.174;2022-08-02T04:00:24;18.10;1.00
451;DHT22;212;48.748;9.174;2022-08-02T04:02:50;18.10;1.00
451;DHT22;212;48.748;9.174;2022-08-02T04:05:18;18.00;1.00
451;DHT22;212;48.748;9.174;2022-08-02T04:07:45;18.00;1.00
451;DHT22;212;48.748;9.174;2022-08-02T04:10:13;17.90;1.00
451;DHT22;212;48.748;9.174;2022-08-02T04:12:40;17.90;1.00
451;DHT22;212;48.748;9.174;2022-08-02T04:15:11;17.90;1.00
451;DHT22;212;48.748;9.174;2022-08-02T04:17:42;17.80;1.00
451;DHT22;212;48.748;9.174;2022-08-02T04:20:13;17.90;1.00
451;DHT22;212;48.748;9.174;2022-08-02T04:22:46;17.90;1.00
451;DHT22;212;48.748;9.174;2022-08-02T04:25:15;18.00;1.00
451;DHT22;212;48.748;9.174;2022-08-02T04:27:42;18.10;1.00
451;DHT22;212;48.748;9.174;2022-08-02T04:30:13;18.20;1.00
451;DHT22;212;48.748;9.174;2022-08-02T04:32:42;18.30;1.00
451;DHT22;212;48.748;9.174;2022-08-02T04:35:09;18.40;1.00
451;DHT22;212;48.748;9.174;2022-08-02T04:37:37;18.50;1.00
451;DHT22;212;48.748;9.174;2022-08-02T04:40:08;18.50;1.00
451;DHT22;212;48.748;9.174;2022-08-02T04:42:35;18.50;1.00
451;DHT22;212;48.748;9.174;2022-08-02T04:45:02;18.40;1.00
451;DHT22;212;48.748;9.174;2022-08-02T04:47:31;18.50;1.00
451;DHT22;212;48.748;9.174;2022-08-02T04:49:58;18.60;1.00
451;DHT22;212;48.748;9.174;2022-08-02T04:52:25;18.60;1.00
451;DHT22;212;48.748;9.174;2022-08-02T04:54:51;18.70;1.00
451;DHT22;212;48.748;9.174;2022-08-02T04:57:19;18.90;1.00
451;DHT22;212;48.748;9.174;2022-08-02T05:00:04;19.00;1.00
451;DHT22;212;48.748;9.174;2022-08-02T05:02:34;19.00;1.00
451;DHT22;212;48.748;9.174;2022-08-02T05:05:00;19.20;1.00
451;DHT22;212;48.748;9.174;2022-08-02T05:07:27;19.30;1.00
451;DHT22;212;48.748;9.174;2022-08-02T05:09:54;19.40;1.00
451;DHT22;212;48.748;9.174;2022-08-02T05:12:20;19.50;1.00
451;DHT22;212;48.748;9.174;2022-08-02T05:14:48;19.60;1.00
451;DHT22;212;48.748;9.174;2022-08-02T05:17:15;19.80;1.00
451;DHT22;212;48.748;9.174;2022-08-02T05:19:43;19.90;1.00
451;DHT22;212;48.748;9.174;2022-08-02T05:22:10;19.90;1.00
451;DHT22;212;48.748;9.174;2022-08-02T05:24:36;19.90;1.00
451;DHT22;212;48.748;9.174;2022-08-02T05:27:03;20.10;1.00
451;DHT22;212;48.748;9.174;2022-08-02T05:29:30;20.20;1.00
451;DHT22;212;48.748;9.174;2022-08-02T05:31:56;20.20;1.00
451;DHT22;212;48.748;9.174;2022-08-02T05:34:23;20.30;1.00
451;DHT22;212;48.748;9.174;2022-08-02T05:36:51;20.30;1.00
451;DHT22;212;48.748;9.174;2022-08-02T05:39:18;20.30;1.00
451;DHT22;212;48.748;9.174;2022-08-02T05:41:44;20.50;1.00
451;DHT22;212;48.748;9.174;2022-08-02T05:44:12;20.60;1.00
451;DHT22;212;48.748;9.174;2022-08-02T05:46:38;20.70;1.00
451;DHT22;212;48.748;9.174;2022-08-02T05:49:05;20.60;1.00
451;DHT22;212;48.748;9.174;2022-08-02T05:51:36;20.70;1.00
451;DHT22;212;48.748;9.174;2022-08-02T05:54:10;20.70;1.00
451;DHT22;212;48.748;9.174;2022-08-02T05:56:44;20.90;1.00
451;DHT22;212;48.748;9.174;2022-08-02T05:59:16;21.40;1.00
451;DHT22;212;48.748;9.174;2022-08-02T06:01:44;21.70;1.00
451;DHT22;212;48.748;9.174;2022-08-02T06:04:24;21.80;1.00
451;DHT22;212;48.748;9.174;2022-08-02T06:06:55;21.90;1.00
451;DHT22;212;48.748;9.174;2022-08-02T06:09:24;21.90;1.00
451;DHT22;212;48.748;9.174;2022-08-02T06:11:52;22.10;1.00
451;DHT22;212;48.748;9.174;2022-08-02T06:14:19;22.20;1.00
451;DHT22;212;48.748;9.174;2022-08-02T06:16:46;22.70;1.00
451;DHT22;212;48.748;9.174;2022-08-02T06:19:16;23.10;1.00
451;DHT22;212;48.748;9.174;2022-08-02T06:21:44;23.20;1.00
451;DHT22;212;48.748;9.174;2022-08-02T06:24:12;23.30;1.00
451;DHT22;212;48.748;9.174;2022-08-02T06:26:40;23.50;1.00
451;DHT22;212;48.748;9.174;2022-08-02T06:29:08;23.70;1.00
451;DHT22;212;48.748;9.174;2022-08-02T06:31:37;24.90;1.00
451;DHT22;212;48.748;9.174;2022-08-02T06:34:03;26.20;1.00
451;DHT22;212;48.748;9.174;2022-08-02T06:36:37;27.30;1.00
451;DHT22;212;48.748;9.174;2022-08-02T06:39:13;27.90;1.00
451;DHT22;212;48.748;9.174;2022-08-02T06:41:43;28.40;1.00
451;DHT22;212;48.748;9.174;2022-08-02T06:44:12;28.60;1.00
451;DHT22;212;48.748;9.174;2022-08-02T06:46:39;27.90;1.00
451;DHT22;212;48.748;9.174;2022-08-02T06:49:06;28.90;1.00
451;DHT22;212;48.748;9.174;2022-08-02T06:51:33;29.40;1.00
451;DHT22;212;48.748;9.174;2022-08-02T06:54:00;30.30;1.00
451;DHT22;212;48.748;9.174;2022-08-02T06:56:26;31.00;1.00
451;DHT22;212;48.748;9.174;2022-08-02T06:58:54;30.20;1.00
451;DHT22;212;48.748;9.174;2022-08-02T07:01:21;29.60;1.00
451;DHT22;212;48.748;9.174;2022-08-02T07:03:48;30.30;1.00
451;DHT22;212;48.748;9.174;2022-08-02T07:06:15;31.10;1.00
451;DHT22;212;48.748;9.174;2022-08-02T07:08:41;32.00;1.00
451;DHT22;212;48.748;9.174;2022-08-02T07:11:08;30.50;1.00
451;DHT22;212;48.748;9.174;2022-08-02T07:13:35;31.50;1.00
451;DHT22;212;48.748;9.174;2022-08-02T07:16:04;33.40;1.00
451;DHT22;212;48.748;9.174;2022-08-02T07:18:31;34.00;1.00
451;DHT22;212;48.748;9.174;2022-08-02T07:20:57;33.70;1.00
451;DHT22;212;48.748;9.174;2022-08-02T07:23:24;34.90;1.00
451;DHT22;212;48.748;9.174;2022-08-02T07:25:51;35.50;1.00
451;DHT22;212;48.748;9.174;2022-08-02T07:28:17;36.50;1.00
451;DHT22;212;48.748;9.174;2022-08-02T07:30:44;36.60;1.00
451;DHT22;212;48.748;9.174;2022-08-02T07:33:12;36.30;1.00
451;DHT22;212;48.748;9.174;2022-08-02T07:35:39;34.50;1.00
451;DHT22;212;48.748;9.174;2022-08-02T07:38:06;33.60;1.00
451;DHT22;212;48.748;9.174;2022-08-02T07:40:33;33.80;1.00
451;DHT22;212;48.748;9.174;2022-08-02T07:42:59;33.20;1.00
451;DHT22;212;48.748;9.174;2022-08-02T07:45:26;32.20;1.00
451;DHT22;212;48.748;9.174;2022-08-02T07:47:53;31.50;1.00
451;DHT22;212;48.748;9.174;2022-08-02T07:50:22;32.40;1.00
451;DHT22;212;48.748;9.174;2022-08-02T07:52:49;33.40;1.00
451;DHT22;212;48.748;9.174;2022-08-02T07:55:16;34.20;1.00
451;DHT22;212;48.748;9.174;2022-08-02T07:57:44;35.00;1.00
451;DHT22;212;48.748;9.174;2022-08-02T08:00:11;36.00;1.00
451;DHT22;212;48.748;9.174;2022-08-02T08:02:39;35.00;1.00
451;DHT22;212;48.748;9.174;2022-08-02T08:05:06;33.40;1.00
451;DHT22;212;48.748;9.174;2022-08-02T08:07:34;33.90;1.00
451;DHT22;212;48.748;9.174;2022-08-02T08:10:02;34.70;1.00
451;DHT22;212;48.748;9.174;2022-08-02T08:12:28;34.40;1.00
451;DHT22;212;48.748;9.174;2022-08-02T08:14:55;34.90;1.00
451;DHT22;212;48.748;9.174;2022-08-02T08:17:23;35.40;1.00
451;DHT22;212;48.748;9.174;2022-08-02T08:19:49;36.50;1.00
451;DHT22;212;48.748;9.174;2022-08-02T08:22:16;36.40;1.00
451;DHT22;212;48.748;9.174;2022-08-02T08:24:44;36.40;1.00
451;DHT22;212;48.748;9.174;2022-08-02T08:27:12;36.60;1.00
451;DHT22;212;48.748;9.174;2022-08-02T08:29:40;34.80;1.00
451;DHT22;212;48.748;9.174;2022-08-02T08:32:07;35.60;1.00
451;DHT22;212;48.748;9.174;2022-08-02T08:34:34;35.90;1.00
451;DHT22;212;48.748;9.174;2022-08-02T08:37:00;35.50;1.00
451;DHT22;212;48.748;9.174;2022-08-02T08:39:28;33.50;1.00
451;DHT22;212;48.748;9.174;2022-08-02T08:41:56;34.60;1.00
451;DHT22;212;48.748;9.174;2022-08-02T08:44:23;35.40;1.00
451;DHT22;212;48.748;9.174;2022-08-02T08:46:54;36.40;1.00
451;DHT22;212;48.748;9.174;2022-08-02T08:49:25;34.60;1.00
451;DHT22;212;48.748;9.174;2022-08-02T08:51:54;34.70;1.00
451;DHT22;212;48.748;9.174;2022-08-02T08:54:23;36.00;1.00
451;DHT22;212;48.748;9.174;2022-08-02T08:56:50;37.90;1.00
451;DHT22;212;48.748;9.174;2022-08-02T08:59:19;37.50;1.00
451;DHT22;212;48.748;9.174;2022-08-02T09:01:46;38.10;1.00
451;DHT22;212;48.748;9.174;2022-08-02T09:04:14;39.50;1.00
451;DHT22;212;48.748;9.174;2022-08-02T09:06:41;39.60;1.00
451;DHT22;212;48.748;9.174;2022-08-02T09:09:08;39.60;1.00
451;DHT22;212;48.748;9.174;2022-08-02T09:11:35;40.30;1.00
451;DHT22;212;48.748;9.174;2022-08-02T09:14:02;38.60;1.00
451;DHT22;212;48.748;9.174;2022-08-02T09:16:32;37.00;1.00
451;DHT22;212;48.748;9.174;2022-08-02T09:19:00;37.20;1.00
451;DHT22;212;48.748;9.174;2022-08-02T09:21:45;37.00;1.00
451;DHT22;212;48.748;9.174;2022-08-02T09:24:18;36.10;1.00
451;DHT22;212;48.748;9.174;2022-08-02T09:26:46;36.30;1.00
451;DHT22;212;48.748;9.174;2022-08-02T09:29:13;37.10;1.00
451;DHT22;212;48.748;9.174;2022-08-02T09:31:42;39.00;1.00
451;DHT22;212;48.748;9.174;2022-08-02T09:34:09;41.10;1.00
451;DHT22;212;48.748;9.174;2022-08-02T09:36:37;42.10;1.00
451;DHT22;212;48.748;9.174;2022-08-02T09:39:06;42.10;1.00
451;DHT22;212;48.748;9.174;2022-08-02T09:41:35;39.60;1.00
451;DHT22;212;48.748;9.174;2022-08-02T09:44:04;38.70;1.00
451;DHT22;212;48.748;9.174;2022-08-02T09:46:32;37.70;1.00
451;DHT22;212;48.748;9.174;2022-08-02T09:49:04;37.50;1.00
451;DHT22;212;48.748;9.174;2022-08-02T09:51:34;35.40;1.00
451;DHT22;212;48.748;9.174;2022-08-02T09:54:02;33.70;1.00
451;DHT22;212;48.748;9.174;2022-08-02T09:56:40;32.30;1.00
451;DHT22;212;48.748;9.174;2022-08-02T09:59:08;31.50;1.00
451;DHT22;212;48.748;9.174;2022-08-02T10:01:34;30.60;1.00
451;DHT22;212;48.748;9.174;2022-08-02T10:04:05;30.00;1.00
451;DHT22;212;48.748;9.174;2022-08-02T10:06:33;29.30;1.00
451;DHT22;212;48.748;9.174;2022-08-02T10:09:00;28.90;1.00
451;DHT22;212;48.748;9.174;2022-08-02T10:11:27;28.50;1.00
451;DHT22;212;48.748;9.174;2022-08-02T10:13:54;28.50;1.00
451;DHT22;212;48.748;9.174;2022-08-02T10:16:22;28.30;1.00
451;DHT22;212;48.748;9.174;2022-08-02T10:18:50;27.80;1.00
451;DHT22;212;48.748;9.174;2022-08-02T10:21:25;27.80;1.00
451;DHT22;212;48.748;9.174;2022-08-02T10:23:59;28.10;1.00
451;DHT22;212;48.748;9.174;2022-08-02T10:26:31;27.90;1.00
451;DHT22;212;48.748;9.174;2022-08-02T10:28:58;28.00;1.00
451;DHT22;212;48.748;9.174;2022-08-02T10:31:28;29.00;1.00
451;DHT22;212;48.748;9.174;2022-08-02T10:33:57;31.40;1.00
451;DHT22;212;48.748;9.174;2022-08-02T10:36:29;34.00;1.00
451;DHT22;212;48.748;9.174;2022-08-02T10:38:57;36.40;1.00
451;DHT22;212;48.748;9.174;2022-08-02T10:41:40;38.30;1.00
451;DHT22;212;48.748;9.174;2022-08-02T10:44:07;38.70;1.00
451;DHT22;212;48.748;9.174;2022-08-02T10:46:34;39.40;1.00
451;DHT22;212;48.748;9.174;2022-08-02T10:49:05;40.00;1.00
451;DHT22;212;48.748;9.174;2022-08-02T10:51:57;41.10;1.00
451;DHT22;212;48.748;9.174;2022-08-02T10:54:25;40.60;1.00
451;DHT22;212;48.748;9.174;2022-08-02T10:56:53;40.80;1.00
451;DHT22;212;48.748;9.174;2022-08-02T10:59:25;41.10;1.00
451;DHT22;212;48.748;9.174;2022-08-02T11:01:52;40.40;1.00
451;DHT22;212;48.748;9.174;2022-08-02T11:04:27;39.90;1.00
451;DHT22;212;48.748;9.174;2022-08-02T11:07:08;38.80;1.00
451;DHT22;212;48.748;9.174;2022-08-02T11:09:36;37.80;1.00
451;DHT22;212;48.748;9.174;2022-08-02T11:12:04;36.50;1.00
451;DHT22;212;48.748;9.174;2022-08-02T11:14:33;36.30;1.00
451;DHT22;212;48.748;9.174;2022-08-02T11:17:10;37.10;1.00
451;DHT22;212;48.748;9.174;2022-08-02T11:22:44;37.70;1.00
451;DHT22;212;48.748;9.174;2022-08-02T11:25:34;37.90;1.00
451;DHT22;212;48.748;9.174;2022-08-02T11:28:10;37.60;1.00
451;DHT22;212;48.748;9.174;2022-08-02T11:30:37;37.70;1.00
451;DHT22;212;48.748;9.174;2022-08-02T11:33:04;37.00;1.00
451;DHT22;212;48.748;9.174;2022-08-02T11:35:32;36.70;1.00
451;DHT22;212;48.748;9.174;2022-08-02T11:38:14;37.20;1.00
451;DHT22;212;48.748;9.174;2022-08-02T11:40:41;37.70;1.00
451;DHT22;212;48.748;9.174;2022-08-02T11:43:16;37.00;1.00
451;DHT22;212;48.748;9.174;2022-08-02T11:45:44;38.20;1.00
451;DHT22;212;48.748;9.174;2022-08-02T11:48:11;38.00;1.00
451;DHT22;212;48.748;9.174;2022-08-02T11:50:38;37.10;1.00
451;DHT22;212;48.748;9.174;2022-08-02T11:53:13;36.10;1.00
451;DHT22;212;48.748;9.174;2022-08-02T11:55:40;36.10;1.00
451;DHT22;212;48.748;9.174;2022-08-02T11:58:08;34.90;1.00
451;DHT22;212;48.748;9.174;2022-08-02T12:00:36;34.70;1.00
451;DHT22;212;48.748;9.174;2022-08-02T12:03:03;35.40;1.00
451;DHT22;212;48.748;9.174;2022-08-02T12:05:30;36.50;1.00
451;DHT22;212;48.748;9.174;2022-08-02T12:07:57;36.30;1.00
451;DHT22;212;48.748;9.174;2022-08-02T12:10:25;37.40;1.00
451;DHT22;212;48.748;9.174;2022-08-02T12:12:54;37.90;1.00
451;DHT22;212;48.748;9.174;2022-08-02T12:15:35;37.90;1.00
451;DHT22;212;48.748;9.174;2022-08-02T12:18:02;37.70;1.00
451;DHT22;212;48.748;9.174;2022-08-02T12:20:51;37.80;1.00
451;DHT22;212;48.748;9.174;2022-08-02T12:23:18;36.90;1.00
451;DHT22;212;48.748;9.174;2022-08-02T12:25:58;37.00;1.00
451;DHT22;212;48.748;9.174;2022-08-02T12:28:25;36.80;1.00
451;DHT22;212;48.748;9.174;2022-08-02T12:30:54;36.50;1.00
451;DHT22;212;48.748;9.174;2022-08-02T12:33:25;35.30;1.00
451;DHT22;212;48.748;9.174;2022-08-02T12:35:52;33.70;1.00
451;DHT22;212;48.748;9.174;2022-08-02T12:38:18;32.40;1.00
451;DHT22;212;48.748;9.174;2022-08-02T12:40:47;33.10;1.00
451;DHT22;212;48.748;9.174;2022-08-02T12:43:18;33.00;1.00
451;DHT22;212;48.748;9.174;2022-08-02T12:45:47;33.00;1.00
451;DHT22;212;48.748;9.174;2022-08-02T12:48:15;33.20;1.00
451;DHT22;212;48.748;9.174;2022-08-02T12:50:42;33.00;1.00
451;DHT22;212;48.748;9.174;2022-08-02T12:53:11;33.10;1.00
451;DHT22;212;48.748;9.174;2022-08-02T12:55:49;33.00;1.00
451;DHT22;212;48.748;9.174;2022-08-02T12:58:16;32.70;1.00
451;DHT22;212;48.748;9.174;2022-08-02T13:00:51;32.00;1.00
451;DHT22;212;48.748;9.174;2022-08-02T13:03:18;30.90;1.00
451;DHT22;212;48.748;9.174;2022-08-02T13:05:45;30.70;1.00
451;DHT22;212;48.748;9.174;2022-08-02T13:08:12;30.40;1.00
451;DHT22;212;48.748;9.174;2022-08-02T13:10:39;30.00;1.00
451;DHT22;212;48.748;9.174;2022-08-02T13:13:07;30.40;1.00
451;DHT22;212;48.748;9.174;2022-08-02T13:15:34;30.70;1.00
451;DHT22;212;48.748;9.174;2022-08-02T13:18:00;30.70;1.00
451;DHT22;212;48.748;9.174;2022-08-02T13:20:28;31.10;1.00
451;DHT22;212;48.748;9.174;2022-08-02T13:22:55;31.00;1.00
451;DHT22;212;48.748;9.174;2022-08-02T13:25:22;30.40;1.00
451;DHT22;212;48.748;9.174;2022-08-02T13:27:48;30.60;1.00
451;DHT22;212;48.748;9.174;2022-08-02T13:30:17;30.60;1.00
451;DHT22;212;48.748;9.174;2022-08-02T13:32:44;30.40;1.00
451;DHT22;212;48.748;9.174;2022-08-02T13:35:11;29.60;1.00
451;DHT22;212;48.748;9.174;2022-08-02T13:37:39;30.00;1.00
451;DHT22;212;48.748;9.174;2022-08-02T13:40:08;30.30;1.00
451;DHT22;212;48.748;9.174;2022-08-02T13:42:35;30.60;1.00
451;DHT22;212;48.748;9.174;2022-08-02T13:45:01;30.90;1.00
451;DHT22;212;48.748;9.174;2022-08-02T13:47:29;31.30;1.00
451;DHT22;212;48.748;9.174;2022-08-02T13:49:56;30.40;1.00
451;DHT22;212;48.748;9.174;2022-08-02T13:52:23;30.40;1.00
451;DHT22;212;48.748;9.174;2022-08-02T13:54:49;30.50;1.00
451;DHT22;212;48.748;9.174;2022-08-02T13:57:16;30.60;1.00
451;DHT22;212;48.748;9.174;2022-08-02T13:59:42;30.30;1.00
451;DHT22;212;48.748;9.174;2022-08-02T14:02:09;30.20;1.00
451;DHT22;212;48.748;9.174;2022-08-02T14:04:37;30.10;1.00
451;DHT22;212;48.748;9.174;2022-08-02T14:07:04;30.10;1.00
451;DHT22;212;48.748;9.174;2022-08-02T14:09:31;30.10;1.00
451;DHT22;212;48.748;9.174;2022-08-02T14:11:57;30.10;1.00
451;DHT22;212;48.748;9.174;2022-08-02T14:14:24;30.00;1.00
451;DHT22;212;48.748;9.174;2022-08-02T14:16:51;30.00;1.00
451;DHT22;212;48.748;9.174;2022-08-02T14:19:18;30.00;1.00
451;DHT22;212;48.748;9.174;2022-08-02T14:21:47;29.90;1.00
451;DHT22;212;48.748;9.174;2022-08-02T14:24:15;29.70;1.00
451;DHT22;212;48.748;9.174;2022-08-02T14:26:41;29.50;1.00
451;DHT22;212;48.748;9.174;2022-08-02T14:29:08;29.50;1.00
451;DHT22;212;48.748;9.174;2022-08-02T14:31:35;29.60;1.00
451;DHT22;212;48.748;9.174;2022-08-02T14:34:02;30.20;1.00
451;DHT22;212;48.748;9.174;2022-08-02T14:36:28;30.60;1.00
451;DHT22;212;48.748;9.174;2022-08-02T14:38:56;30.60;1.00
451;DHT22;212;48.748;9.174;2022-08-02T14:41:23;30.40;1.00
451;DHT22;212;48.748;9.174;2022-08-02T14:43:50;30.30;1.00
451;DHT22;212;48.748;9.174;2022-08-02T14:46:33;30.40;1.00
451;DHT22;212;48.748;9.174;2022-08-02T14:49:01;30.30;1.00
451;DHT22;212;48.748;9.174;2022-08-02T14:51:29;30.20;1.00
451;DHT22;212;48.748;9.174;2022-08-02T14:53:58;30.00;1.00
451;DHT22;212;48.748;9.174;2022-08-02T14:56:25;29.80;1.00
451;DHT22;212;48.748;9.174;2022-08-02T14:58:52;29.60;1.00
451;DHT22;212;48.748;9.174;2022-08-02T15:01:19;29.60;1.00
451;DHT22;212;48.748;9.174;2022-08-02T15:03:45;29.80;1.00
451;DHT22;212;48.748;9.174;2022-08-02T15:06:12;29.80;1.00
451;DHT22;212;48.748;9.174;2022-08-02T15:08:39;29.60;1.00
451;DHT22;212;48.748;9.174;2022-08-02T15:11:07;29.40;1.00
451;DHT22;212;48.748;9.174;2022-08-02T15:13:34;29.40;1.00
451;DHT22;212;48.748;9.174;2022-08-02T15:16:00;29.20;1.00
451;DHT22;212;48.748;9.174;2022-08-02T15:18:27;29.20;1.00
451;DHT22;212;48.748;9.174;2022-08-02T15:20:54;29.20;1.00
451;DHT22;212;48.748;9.174;2022-08-02T15:23:21;28.90;1.00
451;DHT22;212;48.748;9.174;2022-08-02T15:25:49;28.90;1.00
451;DHT22;212;48.748;9.174;2022-08-02T15:28:17;28.90;1.00
451;DHT22;212;48.748;9.174;2022-08-02T15:30:44;28.80;1.00
451;DHT22;212;48.748;9.174;2022-08-02T15:33:11;28.80;1.00
451;DHT22;212;48.748;9.174;2022-08-02T15:35:38;29.10;1.00
451;DHT22;212;48.748;9.174;2022-08-02T15:38:05;29.20;1.00
451;DHT22;212;48.748;9.174;2022-08-02T15:40:31;29.10;1.00
451;DHT22;212;48.748;9.174;2022-08-02T15:42:58;29.10;1.00
451;DHT22;212;48.748;9.174;2022-08-02T15:45:26;29.10;1.00
451;DHT22;212;48.748;9.174;2022-08-02T15:47:53;29.20;1.00
451;DHT22;212;48.748;9.174;2022-08-02T15:50:20;29.30;1.00
451;DHT22;212;48.748;9.174;2022-08-02T15:52:46;29.50;1.00
451;DHT22;212;48.748;9.174;2022-08-02T15:55:13;29.50;1.00
451;DHT22;212;48.748;9.174;2022-08-02T15:57:40;29.30;1.00
451;DHT22;212;48.748;9.174;2022-08-02T16:00:07;29.10;1.00
451;DHT22;212;48.748;9.174;2022-08-02T16:02:35;28.90;1.00
451;DHT22;212;48.748;9.174;2022-08-02T16:05:03;29.00;1.00
451;DHT22;212;48.748;9.174;2022-08-02T16:07:29;29.30;1.00
451;DHT22;212;48.748;9.174;2022-08-02T16:09:56;29.40;1.00
451;DHT22;212;48.748;9.174;2022-08-02T16:12:23;29.50;1.00
451;DHT22;212;48.748;9.174;2022-08-02T16:14:49;29.40;1.00
451;DHT22;212;48.748;9.174;2022-08-02T16:17:16;29.40;1.00
451;DHT22;212;48.748;9.174;2022-08-02T16:19:44;29.40;1.00
451;DHT22;212;48.748;9.174;2022-08-02T16:22:11;29.40;1.00
451;DHT22;212;48.748;9.174;2022-08-02T16:24:37;29.30;1.00
451;DHT22;212;48.748;9.174;2022-08-02T16:27:04;29.10;1.00
451;DHT22;212;48.748;9.174;2022-08-02T16:29:32;29.10;1.00
451;DHT22;212;48.748;9.174;2022-08-02T16:32:00;29.00;1.00
451;DHT22;212;48.748;9.174;2022-08-02T16:34:27;29.00;1.00
451;DHT22;212;48.748;9.174;2022-08-02T16:36:55;29.20;1.00
451;DHT22;212;48.748;9.174;2022-08-02T16:39:21;29.30;1.00
451;DHT22;212;48.748;9.174;2022-08-02T16:41:48;29.10;1.00
451;DHT22;212;48.748;9.174;2022-08-02T16:44:15;29.10;1.00
451;DHT22;212;48.748;9.174;2022-08-02T16:46:41;29.00;1.00
451;DHT22;212;48.748;9.174;2022-08-02T16:49:08;28.80;1.00
451;DHT22;212;48.748;9.174;2022-08-02T16:51:35;29.00;1.00
451;DHT22;212;48.748;9.174;2022-08-02T16:54:03;29.20;1.00
451;DHT22;212;48.748;9.174;2022-08-02T16:56:29;29.40;1.00
451;DHT22;212;48.748;9.174;2022-08-02T16:58:56;29.50;1.00
451;DHT22;212;48.748;9.174;2022-08-02T17:01:23;29.40;1.00
451;DHT22;212;48.748;9.174;2022-08-02T17:03:50;29.50;1.00